Aérodrome :
LOGIN :

S'inscrire | Disclaimer

   EN    FR    IT 

 










Légende :    VFR   VFR Marginal   IFR   IFR Intensif   IFR Très Intensif
Visi : 
Plafond : 
>= 8 km
>= 3000ft
5 à 8 km
1000 à 3000 ft
1500m à 5 km
500 à 1000 ft
800 à 1500m
200 à 500 ft
< 800m
< 200 ft
Symboles :   Orages  Brouillard  Fortes neiges  Fortes précipitations  Vent > 20 kt
SIGMETs :   Divers  Orages  Givrage  Turbulence  Onde Orograph.  Cendres Volcan.







- Altitude de l'aérodrome : 479 ft
- Code IATA : DOL
- Voir les cartes d'approche


LFRG - Deauville

DERNIER METAR :
  • 190800Z AUTO 19004KT 0250 R30/0300N FG VV/// 04/04 Q1022 BECMG 9999 BR BKN025

METARs EXPIRÉS :
  • 190730Z AUTO 20005KT 0300 0250 R30/0375N FG VV/// 04/04 Q1021 BECMG 9999 BR BKN025
  • 190700Z AUTO 19004KT 0350 R30/0450N FG VV/// 04/04 Q1021 NOSIG
  • 190630Z AUTO VRB03KT 0350 0300 R30/0450N FG VV/// 04/03 Q1021 NOSIG
  • 190600Z AUTO 20003KT 180V250 0400 0350 R30/0550U FG VV/// 04/03 Q1020 NOSIG
  • 190530Z AUTO 19004KT 0300 R30/0375N FG VV/// 03/03 Q1020 TEMPO 0500 FG

TAF AMD TAF LFRG
Valide du 19 à 06h jusqu'au 19 à 15h UTC


190550Z 1906/1915 23005KT 5000 BR SCT006
TEMPO 1906/1909 0300 FG VV///
BECMG 1908/1911 9999 BKN025
ATIS : +33 2 31 65 65 36
Pas de NOTAMs connus pour ce terrain.
1 SIGMET publié pour la FIR Paris (LFFF) :
 
Turbulence forte
LFFF SIGMET 2 VALID 190800/191200 LFPW
LFFF PARIS FIR/UIR SEV TURB FCST WI N4715 E00130 - N4715 W00015 - N4800 W00015 - N4900 E00100 - N4830 E00230 - N4715 E00130 FL200/300 MOV E 10KT WKN=



MET'MAP, la Météo Aéronautique d'un coup d'oeil ! - Copyright ORBIFLY Décembre 2007 - Disclaimer

ORBIFLY MET'MAP TEAM :

Programmation & Développement : Alexandra Zaïnal
Conception & Développement : Baudouin d'Aumeries
Co-Programmation & Développement : Marc-Olivier Méhu
Soutien technique & logistique : Manuel Goepfert

Contact : metmap@orbifly.com




SOURCES & CREDITS :

   NOAA